Terminal Aerodrome Forecast
Issued by NWS

Home | Current Version | Previous Version | Text Only | Print | Product List | Glossary On
Versions: 1 2 3 4 5 6 7 8 9 10 11 12 13 14 15 16 17 18 19 20 21 22 23 24 25 26 27 28 29 30 31 32 33 34 35 36 37 38 39 40 41 42 43 44 45 46 47 48 49 50
000
FTUS41 KRLX 181807 CCA
TAFCKB
TAF COR
KCKB 181807Z 1818/1918 28006KT P6SM OVC012
     FM190000 00000KT P6SM OVC015
     FM190600 00000KT P6SM BKN170
     FM191500 10006KT P6SM OVC130
     FM191700 10006KT 5SM RA OVC060=

USA.gov is the U.S. government's official web portal to all federal, state and local government web resources and services.